Los Luceros, New Mexico
Current Conditions -  °F | °C
As of 12:55 AM on Thursday 23 Oct 2014 (Local Time) from KLAM Reporting Station
Clear Clear  
Wind Chill: 53°   Ceiling: Unl
Heat Index: 53°   Visibility: 10mi
Dew Point: 34°   Wind: 6mph
Humidity: 49%   Direction: 280°W
Pressure: 30.29"   Gusts: NA
Location:  36.1112°N, 106.046°W
Report Text: KLAM 230655Z AUTO 28005KT 10SM CLR 12/01 A3029 RMK AO2 T01160011
Loading
Personal Weather Stations






























Interactive Weather Map
Tropical Storm Tracking
New forecast layout! Learn more

10-Day Weather Forecast

Advertisements
Track Severe Weather on mobile